メインページ
METAR-TAF:

METAR-TAF

空港 :

テヘラン, イラン

メヘラーバード国際空港

緯度: 35-41N, 経度: 051-21E, 海抜: 1204m

現時点の気象観測

当レポートは25分前の23:30(UTC)に作成
東/北東の風 8kt
気温 8°C
湿度 76%
気圧 1008 hPa
視程: 8000m
高度2000ftの雲はほとんどない
高度2500ftの雲は散在している
高度8000ftの曇り

METAR: OIII 242330Z 06008KT 8000 RA FEW020 SCT025 OVC080 08/04 Q1008 A2978

時間: 03:25 (23:55 UTC)

予報

当レポートは55分前の23:00(UTC)に作成
予報は25日の 00時(UTC)から 26日の 06時(UTC)まで有効
東/北東の風 8kt
視程: 5000m
高度3000ftの千切れ雲あり
高度9000ftの曇り
雨, 靄
25日の 00時(UTC)から 25日の 06時(UTC)まで一時的に
の風 12kt
視程: 3000m
高度3000ftの雲はほとんどない, 積乱雲.
高度3500ftの雲は散在している
高度8000ftの曇り
確率 40%
25日の 00時(UTC)から 25日の 02時(UTC)まで
視程: 1500m
25日の 06時(UTC)から 25日の 08時(UTC)まで徐々に
西/北西の風 17kt
視程: 6000m
高度3500ftの雲はほとんどない
高度10000ftの千切れ雲あり
25日の 09時(UTC)から 25日の 15時(UTC)まで一時的に
西/北西の風 14kt、最大23ktの突風を伴う

TAF: OIII 242300Z 2500/2606 06004MPS 5000 RA BR BKN030 OVC090 TEMPO 2500/2506 09006MPS 3000 RA FEW030CB SCT035 OVC080 PROB40 2500/2502 1500 RA BECMG 2506/2508 30009MPS 6000 FEW035 BKN100 TEMPO 2509/2515 30007G12MPS

4,000以上の空港の気象観測と天気予報(METAR報とTAF報)

利用可能な観測所は地図上に黄色い丸と赤い丸で示す。

丸の上にカーソルを重ねると観測所名を参照できる。

次にクリックすると気象観測と天気予報を参照できる。

マップの切り替え:黒色「×」印の緑ボタンをクリックして拡大、「-」印の緑ボタンをクリックして縮小、緑色の三角印をクリックして隣りの地図に切り替え


METAR-TAF: